createdAt,value
2019-03-05T00:00:42.155Z,16.68
2019-03-05T00:03:10.331Z,16.69
2019-03-05T00:05:37.649Z,16.70
2019-03-05T00:08:05.052Z,16.72
2019-03-05T00:10:32.023Z,16.70
2019-03-05T00:12:58.982Z,16.68
2019-03-05T00:15:26.325Z,16.68
2019-03-05T00:17:54.121Z,16.68
2019-03-05T00:20:22.124Z,16.65
2019-03-05T00:22:49.172Z,16.66
2019-03-05T00:25:16.224Z,16.70
2019-03-05T00:27:43.236Z,16.70
2019-03-05T00:30:10.247Z,16.71
2019-03-05T00:32:41.690Z,16.70
2019-03-05T00:35:12.831Z,16.70
2019-03-05T00:37:39.825Z,16.65
2019-03-05T00:40:09.917Z,16.61
2019-03-05T00:42:40.285Z,16.60
2019-03-05T00:45:08.339Z,16.55
2019-03-05T00:47:35.482Z,16.52
2019-03-05T00:50:05.975Z,16.52
2019-03-05T00:52:33.058Z,16.54
2019-03-05T00:55:00.262Z,16.53
2019-03-05T00:57:27.496Z,16.54
2019-03-05T00:59:54.420Z,16.56
2019-03-05T01:02:21.541Z,16.58
2019-03-05T01:04:49.081Z,16.58
2019-03-05T01:07:16.038Z,16.56
2019-03-05T01:09:43.452Z,16.55
2019-03-05T01:12:11.038Z,16.53
2019-03-05T01:14:39.038Z,16.53
2019-03-05T01:17:08.435Z,16.55
2019-03-05T01:19:41.157Z,16.58
2019-03-05T01:22:11.126Z,16.58
2019-03-05T01:24:39.552Z,16.55
2019-03-05T01:27:09.745Z,16.56
2019-03-05T01:29:37.128Z,16.56
2019-03-05T01:32:04.224Z,16.52
2019-03-05T01:34:31.323Z,16.49
2019-03-05T01:36:58.328Z,16.47
2019-03-05T01:39:25.417Z,16.46
2019-03-05T01:41:52.935Z,16.49
2019-03-05T01:44:20.313Z,16.49
2019-03-05T01:46:47.444Z,16.49
2019-03-05T01:49:14.860Z,16.48
2019-03-05T01:51:41.876Z,16.47
2019-03-05T01:54:09.271Z,16.47
2019-03-05T01:56:38.288Z,16.50
2019-03-05T01:59:07.580Z,16.51
2019-03-05T02:01:36.538Z,16.50
2019-03-05T02:04:03.872Z,16.53
2019-03-05T02:06:31.208Z,16.53
2019-03-05T02:09:01.416Z,16.56
2019-03-05T02:11:30.525Z,16.57
2019-03-05T02:13:57.515Z,16.54
2019-03-05T02:16:24.801Z,16.53
2019-03-05T02:18:52.362Z,16.52
2019-03-05T02:21:19.917Z,16.52
2019-03-05T02:23:46.986Z,16.52
2019-03-05T02:26:14.103Z,16.52
2019-03-05T02:28:41.571Z,16.53
2019-03-05T02:31:08.647Z,16.54
2019-03-05T02:33:35.691Z,16.52
2019-03-05T02:36:02.735Z,16.49
2019-03-05T02:38:30.151Z,16.51
2019-03-05T02:41:02.747Z,16.53
2019-03-05T02:43:29.826Z,16.52
2019-03-05T02:45:56.969Z,16.54
2019-03-05T02:48:27.220Z,16.59
2019-03-05T02:50:54.177Z,16.62
2019-03-05T02:53:21.683Z,16.64
2019-03-05T02:55:48.769Z,16.67
2019-03-05T02:58:15.899Z,16.72
2019-03-05T03:00:43.050Z,16.72
2019-03-05T03:03:10.259Z,16.71
2019-03-05T03:05:39.147Z,16.69
2019-03-05T03:08:08.730Z,16.70
2019-03-05T03:10:36.413Z,16.68
2019-03-05T03:13:04.009Z,16.70
2019-03-05T03:15:37.022Z,16.71
2019-03-05T03:17:59.851Z,16.76
2019-03-05T03:20:26.944Z,16.79
2019-03-05T03:22:54.392Z,16.80
2019-03-05T03:25:22.341Z,16.82
2019-03-05T03:27:52.546Z,16.85
2019-03-05T03:30:23.577Z,16.87
2019-03-05T03:32:52.402Z,16.87
2019-03-05T03:35:19.456Z,16.87
2019-03-05T03:37:52.916Z,16.87
2019-03-05T03:40:19.996Z,16.84
2019-03-05T03:42:49.063Z,16.84
2019-03-05T03:45:17.931Z,16.81
2019-03-05T03:47:44.992Z,16.80
2019-03-05T03:50:12.134Z,16.77
2019-03-05T03:52:39.186Z,16.78
2019-03-05T03:55:15.859Z,16.78
2019-03-05T03:57:39.415Z,16.77
2019-03-05T04:00:09.147Z,16.74
2019-03-05T04:02:37.887Z,16.72
2019-03-05T04:05:06.562Z,16.72
2019-03-05T04:07:33.974Z,16.71
2019-03-05T04:10:01.082Z,16.71
2019-03-05T04:12:28.323Z,16.72
2019-03-05T04:14:55.470Z,16.71
2019-03-05T04:17:24.081Z,16.70
2019-03-05T04:19:51.708Z,16.70
2019-03-05T04:22:24.697Z,16.69
2019-03-05T04:24:52.384Z,16.61
2019-03-05T04:27:22.494Z,16.60
2019-03-05T04:29:54.229Z,16.59
2019-03-05T04:32:23.726Z,16.57
2019-03-05T04:34:49.856Z,16.60
2019-03-05T04:37:17.847Z,16.63
2019-03-05T04:39:45.052Z,16.64
2019-03-05T04:42:13.712Z,16.63
2019-03-05T04:44:46.595Z,16.65
2019-03-05T04:47:13.669Z,16.65
2019-03-05T04:49:40.738Z,16.65
2019-03-05T04:52:07.750Z,16.66
2019-03-05T04:54:34.878Z,16.68
2019-03-05T04:57:01.918Z,16.68
2019-03-05T04:59:29.711Z,16.66
2019-03-05T05:01:57.114Z,16.64
2019-03-05T05:04:24.430Z,16.62
2019-03-05T05:06:51.881Z,16.62
2019-03-05T05:09:21.430Z,16.62
2019-03-05T05:11:48.533Z,16.61
2019-03-05T05:14:15.610Z,16.59
2019-03-05T05:16:42.739Z,16.59
2019-03-05T05:19:09.778Z,16.58
2019-03-05T05:21:37.211Z,16.59
2019-03-05T05:24:08.454Z,16.61
2019-03-05T05:26:36.790Z,16.61
2019-03-05T05:29:03.807Z,16.60
2019-03-05T05:31:34.167Z,16.57
2019-03-05T05:34:01.598Z,16.58
2019-03-05T05:36:28.933Z,16.57
2019-03-05T05:38:56.418Z,16.58
2019-03-05T05:41:23.591Z,16.57
2019-03-05T05:43:50.926Z,16.57
2019-03-05T05:46:18.583Z,16.58
2019-03-05T05:48:45.710Z,16.58
2019-03-05T05:51:16.176Z,16.57
2019-03-05T05:53:47.474Z,16.58
2019-03-05T05:56:14.546Z,16.56
2019-03-05T05:58:41.618Z,16.55
2019-03-05T06:01:11.462Z,16.54
2019-03-05T06:03:38.779Z,16.55
2019-03-05T06:06:05.927Z,16.53
2019-03-05T06:08:34.527Z,16.55
2019-03-05T06:11:08.736Z,16.55
2019-03-05T06:13:36.617Z,16.53
2019-03-05T06:16:06.926Z,16.56
2019-03-05T06:18:35.738Z,16.56
2019-03-05T06:21:04.353Z,16.58
2019-03-05T06:23:39.737Z,16.60
2019-03-05T06:26:08.686Z,16.59
2019-03-05T06:28:37.810Z,16.60
2019-03-05T06:31:04.818Z,16.59
2019-03-05T06:33:34.734Z,16.59
2019-03-05T06:36:03.486Z,16.62
2019-03-05T06:38:32.614Z,16.61
2019-03-05T06:41:06.029Z,16.59
2019-03-05T06:43:35.237Z,16.59
2019-03-05T06:46:03.851Z,16.62
2019-03-05T06:48:35.348Z,16.67
2019-03-05T06:51:02.410Z,16.76
2019-03-05T06:56:20.246Z,16.91
2019-03-05T06:58:47.232Z,16.79
2019-03-05T07:01:16.346Z,17.03
2019-03-05T07:03:43.516Z,17.18
2019-03-05T07:06:10.693Z,17.33
2019-03-05T07:08:38.062Z,17.36
2019-03-05T07:11:05.534Z,17.41
2019-03-05T07:13:35.344Z,17.49
2019-03-05T07:16:03.597Z,17.45
2019-03-05T07:18:30.776Z,17.43
2019-03-05T07:20:58.227Z,17.45
2019-03-05T07:23:25.814Z,17.44
2019-03-05T07:25:52.926Z,17.39
2019-03-05T07:28:22.925Z,17.35
2019-03-05T07:30:52.503Z,17.31
2019-03-05T07:33:19.499Z,17.30
2019-03-05T07:35:46.580Z,17.38
2019-03-05T07:38:17.895Z,17.54
2019-03-05T07:40:46.590Z,17.73
2019-03-05T07:43:13.621Z,17.93
2019-03-05T07:45:40.618Z,18.10
2019-03-05T07:48:07.965Z,18.17
2019-03-05T07:50:35.527Z,18.26
2019-03-05T07:53:02.704Z,18.34
2019-03-05T07:55:29.653Z,18.43
2019-03-05T07:57:56.655Z,18.48
2019-03-05T08:00:23.735Z,18.54
2019-03-05T08:02:51.091Z,18.60
2019-03-05T08:05:18.075Z,18.63
2019-03-05T08:07:45.214Z,18.67
2019-03-05T08:10:12.264Z,18.55
2019-03-05T08:12:39.612Z,18.44
2019-03-05T08:15:08.418Z,18.31
2019-03-05T08:17:35.422Z,18.27
2019-03-05T08:20:02.485Z,18.17
2019-03-05T08:22:30.434Z,18.10
2019-03-05T08:24:59.544Z,18.10
2019-03-05T08:27:28.436Z,18.12
2019-03-05T08:29:55.533Z,18.07
2019-03-05T08:32:25.656Z,18.14
2019-03-05T08:34:53.029Z,18.17
2019-03-05T08:37:19.963Z,18.24
2019-03-05T08:40:00.700Z,18.33
2019-03-05T08:42:27.538Z,18.36
2019-03-05T08:44:57.760Z,18.41
2019-03-05T08:47:29.340Z,18.47
2019-03-05T08:49:56.263Z,18.55
2019-03-05T08:52:24.120Z,18.53
2019-03-05T08:54:51.402Z,18.59
2019-03-05T08:57:18.398Z,18.68
2019-03-05T08:59:45.749Z,18.77
2019-03-05T09:02:12.998Z,18.87
2019-03-05T09:04:40.197Z,18.91
2019-03-05T09:07:07.292Z,18.93
2019-03-05T09:09:36.625Z,18.93
2019-03-05T09:12:03.589Z,18.87
2019-03-05T09:14:30.602Z,18.82
2019-03-05T09:17:01.394Z,18.84
2019-03-05T09:19:28.458Z,18.86
2019-03-05T09:21:55.815Z,18.85
2019-03-05T09:24:22.834Z,18.84
2019-03-05T09:26:51.490Z,18.89
2019-03-05T09:29:19.123Z,19.01
2019-03-05T09:31:46.155Z,18.90
2019-03-05T09:34:14.751Z,18.88
2019-03-05T09:36:50.396Z,18.82
2019-03-05T09:39:10.410Z,18.77
2019-03-05T09:41:37.880Z,18.73
2019-03-05T09:44:04.843Z,18.66
2019-03-05T09:46:31.867Z,18.62
2019-03-05T09:48:58.831Z,18.56
2019-03-05T09:51:26.000Z,18.51
2019-03-05T09:53:53.295Z,18.46
2019-03-05T09:56:20.459Z,18.44
2019-03-05T09:58:47.824Z,18.45
2019-03-05T10:01:14.894Z,18.47
2019-03-05T10:03:41.931Z,18.44
2019-03-05T10:06:08.857Z,18.39
2019-03-05T10:08:35.838Z,18.34
2019-03-05T10:11:02.853Z,18.29
2019-03-05T10:13:30.312Z,18.27
2019-03-05T10:15:57.255Z,18.28
2019-03-05T10:18:24.943Z,18.28
2019-03-05T10:20:51.994Z,18.27
2019-03-05T10:23:18.986Z,18.27
2019-03-05T10:25:46.327Z,18.24
2019-03-05T10:28:14.388Z,18.26
2019-03-05T10:30:41.261Z,18.32
2019-03-05T10:33:08.229Z,18.31
2019-03-05T10:35:35.426Z,18.36
2019-03-05T10:38:02.415Z,18.40
2019-03-05T10:40:29.675Z,18.46
2019-03-05T10:43:07.804Z,18.50
2019-03-05T10:45:25.571Z,18.56
2019-03-05T10:47:52.492Z,18.62
2019-03-05T10:50:21.066Z,18.64
2019-03-05T10:55:29.473Z,18.62
2019-03-05T10:57:56.899Z,18.54
2019-03-05T11:00:24.252Z,18.54
2019-03-05T11:02:51.688Z,18.55
2019-03-05T11:05:18.887Z,18.54
2019-03-05T11:07:46.178Z,18.52
2019-03-05T11:10:13.479Z,18.54
2019-03-05T11:12:40.878Z,18.55
2019-03-05T11:15:08.077Z,18.59
2019-03-05T11:17:39.234Z,18.59
2019-03-05T11:20:06.197Z,18.58
2019-03-05T11:22:33.785Z,18.62
2019-03-05T11:25:00.850Z,18.69
2019-03-05T11:27:28.072Z,18.69
2019-03-05T11:29:55.106Z,18.66
2019-03-05T11:32:22.141Z,18.65
2019-03-05T11:34:49.158Z,18.64
2019-03-05T11:37:16.581Z,18.66
2019-03-05T11:39:43.540Z,18.57
2019-03-05T11:42:10.905Z,18.47
2019-03-05T11:44:38.263Z,18.42
2019-03-05T11:47:05.474Z,18.44
2019-03-05T11:49:32.743Z,18.47
2019-03-05T11:52:00.954Z,18.48
2019-03-05T11:54:27.932Z,18.49
2019-03-05T11:56:55.930Z,18.53
2019-03-05T11:59:22.926Z,18.52
2019-03-05T12:01:50.278Z,18.48
2019-03-05T12:04:17.297Z,18.45
2019-03-05T12:06:44.386Z,18.42
2019-03-05T12:09:11.426Z,18.37
2019-03-05T12:11:38.988Z,18.33
2019-03-05T12:14:06.014Z,18.26
2019-03-05T12:16:33.257Z,18.24
2019-03-05T12:19:01.618Z,18.14
2019-03-05T12:21:28.603Z,18.04
2019-03-05T12:23:55.577Z,17.94
2019-03-05T12:26:22.559Z,17.77
2019-03-05T12:28:49.853Z,17.66
2019-03-05T12:31:17.848Z,17.62
2019-03-05T12:33:45.089Z,17.57
2019-03-05T12:36:12.643Z,17.56
2019-03-05T12:38:39.619Z,17.57
2019-03-05T12:41:06.996Z,17.57
2019-03-05T12:43:34.002Z,17.56
2019-03-05T12:46:01.040Z,17.55
2019-03-05T12:48:39.207Z,17.50
2019-03-05T12:50:56.636Z,17.44
2019-03-05T12:53:28.964Z,17.40
2019-03-05T12:55:59.102Z,17.31
2019-03-05T12:58:26.449Z,17.27
2019-03-05T13:00:54.014Z,17.22
2019-03-05T13:03:25.136Z,17.15
2019-03-05T13:05:52.363Z,17.10
2019-03-05T13:08:20.135Z,17.00
2019-03-05T13:10:47.088Z,16.90
2019-03-05T13:13:15.288Z,16.77
2019-03-05T13:15:42.652Z,16.76
2019-03-05T13:18:09.641Z,16.73
2019-03-05T13:20:36.677Z,16.76
2019-03-05T13:23:08.769Z,16.78
2019-03-05T13:25:32.940Z,16.81
2019-03-05T13:28:02.063Z,16.81
2019-03-05T13:30:29.084Z,16.84
2019-03-05T13:32:59.030Z,16.86
2019-03-05T13:35:30.345Z,16.87
2019-03-05T13:37:55.409Z,16.84
2019-03-05T13:40:22.393Z,16.84
2019-03-05T13:42:49.387Z,16.92
2019-03-05T13:45:16.312Z,16.94
2019-03-05T13:47:43.466Z,16.95
2019-03-05T13:50:11.287Z,17.01
2019-03-05T13:52:38.678Z,17.12
2019-03-05T13:55:05.623Z,17.22
2019-03-05T13:57:32.677Z,17.25
2019-03-05T13:59:59.701Z,17.24
2019-03-05T14:02:26.730Z,17.20
2019-03-05T14:04:53.665Z,17.25
2019-03-05T14:07:20.875Z,17.30
2019-03-05T14:09:47.902Z,17.40
2019-03-05T14:12:14.942Z,17.55
2019-03-05T14:14:41.880Z,17.68
2019-03-05T14:17:08.851Z,17.73
2019-03-05T14:19:36.085Z,17.75
2019-03-05T14:22:03.005Z,17.82
2019-03-05T14:24:30.284Z,17.90
2019-03-05T14:26:57.248Z,17.94
2019-03-05T14:29:24.184Z,18.00
2019-03-05T14:31:51.437Z,18.10
2019-03-05T14:34:18.704Z,18.16
2019-03-05T14:36:45.679Z,18.16
2019-03-05T14:39:13.010Z,18.05
2019-03-05T14:41:40.366Z,17.93
2019-03-05T14:44:07.622Z,17.87
2019-03-05T14:46:34.615Z,17.93
2019-03-05T14:49:01.917Z,17.90
2019-03-05T14:51:28.889Z,17.94
2019-03-05T14:53:55.788Z,17.95
2019-03-05T14:56:22.742Z,18.05
2019-03-05T14:58:49.994Z,18.03
2019-03-05T15:01:17.344Z,17.99
2019-03-05T15:03:44.587Z,17.96
2019-03-05T15:06:11.516Z,17.92
2019-03-05T15:08:38.792Z,18.00
2019-03-05T15:11:05.784Z,18.08
2019-03-05T15:13:32.793Z,17.97
2019-03-05T15:16:00.177Z,17.88
2019-03-05T15:18:27.231Z,17.82
2019-03-05T15:20:54.331Z,17.71
2019-03-05T15:23:21.741Z,17.65
2019-03-05T15:25:49.096Z,17.56
2019-03-05T15:28:16.300Z,17.50
2019-03-05T15:30:43.453Z,17.44
2019-03-05T15:33:10.711Z,17.47
2019-03-05T15:35:37.637Z,17.47
2019-03-05T15:38:04.688Z,17.43
2019-03-05T15:40:32.498Z,17.43
2019-03-05T15:42:59.550Z,17.50
2019-03-05T15:45:26.842Z,17.52
2019-03-05T15:47:53.893Z,17.52
2019-03-05T15:50:21.233Z,17.51
2019-03-05T15:52:48.547Z,17.51
2019-03-05T15:55:15.787Z,17.46
2019-03-05T15:57:43.241Z,17.42
2019-03-05T16:00:10.352Z,17.40
2019-03-05T16:02:37.304Z,17.37
2019-03-05T16:05:11.920Z,17.38
2019-03-05T16:07:32.890Z,17.35
2019-03-05T16:09:59.916Z,17.33
2019-03-05T16:12:26.884Z,17.27
2019-03-05T16:14:53.856Z,17.24
2019-03-05T16:17:24.175Z,17.17
2019-03-05T16:19:52.812Z,17.12
2019-03-05T16:22:19.196Z,17.07
2019-03-05T16:24:46.282Z,17.01
2019-03-05T16:27:13.253Z,16.98
2019-03-05T16:29:40.321Z,16.98
2019-03-05T16:32:07.413Z,17.02
2019-03-05T16:34:34.818Z,17.03
2019-03-05T16:37:05.767Z,17.05
2019-03-05T16:39:31.673Z,17.05
2019-03-05T16:42:00.468Z,17.03
2019-03-05T16:44:27.437Z,17.02
2019-03-05T16:46:57.647Z,16.94
2019-03-05T16:49:24.627Z,16.88
2019-03-05T16:51:51.764Z,16.88
2019-03-05T16:54:18.843Z,16.87
2019-03-05T16:56:46.165Z,16.85
2019-03-05T16:59:13.239Z,16.85
2019-03-05T17:01:40.247Z,16.81
2019-03-05T17:04:07.542Z,16.77
2019-03-05T17:06:34.593Z,16.72
2019-03-05T17:09:01.633Z,16.71
2019-03-05T17:11:30.158Z,16.68
2019-03-05T17:13:57.532Z,16.64
2019-03-05T17:16:26.322Z,16.66
2019-03-05T17:18:53.336Z,16.69
2019-03-05T17:21:27.513Z,16.73
2019-03-05T17:23:52.773Z,16.72
2019-03-05T17:26:22.747Z,16.69
2019-03-05T17:28:50.342Z,16.66
2019-03-05T17:31:17.975Z,16.67
2019-03-05T17:33:45.338Z,16.70
2019-03-05T17:36:15.405Z,16.74
2019-03-05T17:38:42.576Z,16.77
2019-03-05T17:41:09.758Z,16.72
2019-03-05T17:43:37.175Z,16.72
2019-03-05T17:46:04.252Z,16.73
2019-03-05T17:48:31.487Z,16.71
2019-03-05T17:53:32.737Z,16.69
2019-03-05T17:56:00.050Z,16.62
2019-03-05T17:58:27.071Z,16.56
2019-03-05T18:00:54.359Z,16.53
2019-03-05T18:03:21.609Z,16.50
2019-03-05T18:05:48.743Z,16.49
2019-03-05T18:08:16.068Z,16.47
2019-03-05T18:10:43.333Z,16.48
2019-03-05T18:13:10.657Z,16.44
2019-03-05T18:15:37.746Z,16.40
2019-03-05T18:18:04.809Z,16.40
2019-03-05T18:20:33.415Z,16.37
2019-03-05T18:23:00.795Z,16.33
2019-03-05T18:25:29.438Z,16.33
2019-03-05T18:27:56.906Z,16.30
2019-03-05T18:30:24.164Z,16.28
2019-03-05T18:32:53.618Z,16.26
2019-03-05T18:35:20.683Z,16.24
2019-03-05T18:37:48.605Z,16.23
2019-03-05T18:40:15.653Z,16.22
2019-03-05T18:42:42.735Z,16.21
2019-03-05T18:45:09.732Z,16.21
2019-03-05T18:47:36.819Z,16.19
2019-03-05T18:50:03.998Z,16.18
2019-03-05T18:52:31.871Z,16.17
2019-03-05T18:54:58.916Z,16.17
2019-03-05T18:57:26.882Z,16.16
2019-03-05T18:59:53.803Z,16.15
2019-03-05T19:02:27.038Z,16.13
2019-03-05T19:04:54.011Z,16.09
2019-03-05T19:07:21.312Z,16.06
2019-03-05T19:09:48.394Z,16.03
2019-03-05T19:12:15.908Z,16.03
2019-03-05T19:14:43.250Z,15.99
2019-03-05T19:17:10.682Z,15.94
2019-03-05T19:19:37.662Z,15.92
2019-03-05T19:22:04.706Z,15.92
2019-03-05T19:24:33.789Z,15.93
2019-03-05T19:27:00.962Z,15.92
2019-03-05T19:29:29.270Z,15.90
2019-03-05T19:31:56.554Z,15.88
2019-03-05T19:34:23.917Z,15.91
2019-03-05T19:36:51.185Z,15.93
2019-03-05T19:39:18.159Z,15.93
2019-03-05T19:41:45.594Z,15.93
2019-03-05T19:44:13.891Z,15.90
2019-03-05T19:46:41.678Z,15.87
2019-03-05T19:49:08.648Z,15.90
2019-03-05T19:51:35.891Z,15.91
2019-03-05T19:54:03.427Z,15.89
2019-03-05T19:56:31.072Z,15.88
2019-03-05T19:58:59.757Z,15.89
2019-03-05T20:01:26.760Z,15.89
2019-03-05T20:03:53.767Z,15.89
2019-03-05T20:06:21.085Z,15.92
2019-03-05T20:08:48.729Z,15.92
2019-03-05T20:11:16.375Z,15.93
2019-03-05T20:13:43.871Z,15.94
2019-03-05T20:16:11.182Z,15.92
2019-03-05T20:18:38.663Z,15.91
2019-03-05T20:21:06.008Z,15.88
2019-03-05T20:23:34.931Z,15.86
2019-03-05T20:26:04.972Z,15.85
2019-03-05T20:28:32.592Z,15.83
2019-03-05T20:30:59.574Z,15.84
2019-03-05T20:33:26.946Z,15.85
2019-03-05T20:35:55.522Z,15.84
2019-03-05T20:38:22.549Z,15.80
2019-03-05T20:40:53.049Z,15.80
2019-03-05T20:43:21.034Z,15.79
2019-03-05T20:45:48.088Z,15.77
2019-03-05T20:48:19.079Z,15.79
2019-03-05T20:50:46.569Z,15.77
2019-03-05T20:53:15.880Z,15.78
2019-03-05T20:55:43.593Z,15.75
2019-03-05T20:58:10.771Z,15.73
2019-03-05T21:00:38.575Z,15.76
2019-03-05T21:03:05.621Z,15.77
2019-03-05T21:05:38.332Z,15.78
2019-03-05T21:08:05.337Z,15.73
2019-03-05T21:10:32.518Z,15.69
2019-03-05T21:12:59.608Z,15.71
2019-03-05T21:15:27.058Z,15.72
2019-03-05T21:17:54.305Z,15.71
2019-03-05T21:20:21.866Z,15.72
2019-03-05T21:22:49.077Z,15.71
2019-03-05T21:25:16.124Z,15.73
2019-03-05T21:27:43.878Z,15.73
2019-03-05T21:30:13.171Z,15.71
2019-03-05T21:32:40.281Z,15.70
2019-03-05T21:35:07.597Z,15.70
2019-03-05T21:37:34.550Z,15.69
2019-03-05T21:40:01.795Z,15.66
2019-03-05T21:42:29.209Z,15.64
2019-03-05T21:44:59.086Z,15.59
2019-03-05T21:47:26.130Z,15.59
2019-03-05T21:49:53.258Z,15.57
2019-03-05T21:52:20.595Z,15.54
2019-03-05T21:54:48.137Z,15.53
2019-03-05T21:57:15.430Z,15.53
2019-03-05T21:59:42.341Z,15.54
2019-03-05T22:02:16.910Z,15.55
2019-03-05T22:04:43.963Z,15.54
2019-03-05T22:07:11.095Z,15.53
2019-03-05T22:09:38.120Z,15.53
2019-03-05T22:12:05.055Z,15.53
2019-03-05T22:14:32.382Z,15.49
2019-03-05T22:17:02.802Z,15.50
2019-03-05T22:19:30.196Z,15.48
2019-03-05T22:21:57.240Z,15.47
2019-03-05T22:24:24.190Z,15.46
2019-03-05T22:26:51.216Z,15.45
2019-03-05T22:29:19.220Z,15.44
2019-03-05T22:31:47.280Z,15.44
2019-03-05T22:34:14.481Z,15.43
2019-03-05T22:36:41.501Z,15.41
2019-03-05T22:39:08.448Z,15.41
2019-03-05T22:41:38.272Z,15.40
2019-03-05T22:44:04.872Z,15.36
2019-03-05T22:46:33.246Z,15.35
2019-03-05T22:49:00.602Z,15.34
2019-03-05T22:51:27.943Z,15.32
2019-03-05T22:53:54.807Z,15.32
2019-03-05T22:56:22.361Z,15.31
2019-03-05T22:58:49.709Z,15.33
2019-03-05T23:01:17.378Z,15.37
2019-03-05T23:03:45.404Z,15.36
2019-03-05T23:06:12.683Z,15.37
2019-03-05T23:08:39.661Z,15.37
2019-03-05T23:11:06.998Z,15.38
2019-03-05T23:13:33.977Z,15.39
2019-03-05T23:16:01.063Z,15.39
2019-03-05T23:18:28.334Z,15.37
2019-03-05T23:20:55.711Z,15.36
2019-03-05T23:23:22.689Z,15.37
2019-03-05T23:25:49.658Z,15.34
2019-03-05T23:28:16.613Z,15.33
2019-03-05T23:30:43.845Z,15.33
2019-03-05T23:33:10.809Z,15.35
2019-03-05T23:35:38.116Z,15.32
2019-03-05T23:38:05.451Z,15.33
2019-03-05T23:40:32.409Z,15.31
2019-03-05T23:42:59.640Z,15.31
2019-03-05T23:45:26.506Z,15.30
2019-03-05T23:47:53.413Z,15.29
2019-03-05T23:50:20.358Z,15.29
2019-03-05T23:52:47.599Z,15.27
2019-03-05T23:55:14.883Z,15.27
2019-03-05T23:57:42.138Z,15.26
